Ban Chat Noi, Thailand

3:38 AM +07 on February 23, 2018 (GMT +0700)
MPPK-Zone7 | | Change Station

Elev 659 ft 15.85 °N, 102.38 °E | Updated 23 seconds ago

Mostly Cloudy
Mostly Cloudy
71.4 °F
Feels Like 71.4 °F
N
1.6
Wind Variable Wind from South
Gusts 2.2 mph

Today
High -- | Low -- °F
--% Chance of Precip.
Yesterday
High -- | Low -- °F
Precip. -- in
Pressure 29.89 in
Visibility 5.0 miles
Clouds Few 2000 ft
Scattered Clouds 8000 ft
Dew Point 69 °F
Humidity 92%
Rainfall 0.05 in
Snow Depth Not available.
6:30 AM 6:15 PM
Waxing Crescent, 45% visible
METAR VTUK 222000Z 35008KT 8000 -RA FEW020 SCT080 22/21 Q1012 NOSIG
Pressure 29.89 in
Visibility 5.0 miles
Clouds Few 2000 ft
Scattered Clouds 8000 ft
Dew Point 69 °F
Humidity 92%
Rainfall 0.05 in
Snow Depth Not available.
6:30 AM 6:15 PM
Waxing Crescent, 45% visible
METAR VTUK 222000Z 35008KT 8000 -RA FEW020 SCT080 22/21 Q1012 NOSIG

Get Severe Weather Alerts

Thanks for signing up!

Be on the lookout for a verification email in your inbox.

You'll start receiving the daily forecast at 6 AM.

×

10-Day Weather Forecast

No radar image for this location.
×

Almanac

Astronomy

Feb. 23, 2018 Rise Set
Actual Time
Civil Twilight
Nautical Twilight
Astronomical Twilight
Moon
Length of Visible Light
Length of Day
Tomorrow will be .
, % of the Moon is Illuminated

Today's Extremes

Country Highs Country Lows

Community

WunderPhotos

Category 6

Welcome to Category 6. This is the collective home for Weather Underground's featured writeups by Dr. Jeff Masters (right), Bob Henson (left), Chris Burt, and other regular contributors.

Nearby

Air Quality

  Air Quality AQ Index Pollutant
Not available.

Snow Depth

Station Depth Elevation

Earthquake Activity

City Distance Mag. Time & Date
Minimum magnitude displayed is 2.5.

Coastal Water Temperatures

Place Temperature

Stations

Nearby Weather Stations

Station Location Temp. Windchill Dew Point Humidity Wind Precip. Elev Updated Type